createdAt,value
2017-12-21T00:02:07.760Z,14.13
2017-12-21T00:04:34.218Z,13.77
2017-12-21T00:07:01.442Z,14.07
2017-12-21T00:09:27.849Z,13.88
2017-12-21T00:11:55.053Z,14.50
2017-12-21T00:14:21.488Z,13.88
2017-12-21T00:16:47.963Z,16.23
2017-12-21T00:19:14.453Z,13.38
2017-12-21T00:21:40.911Z,16.55
2017-12-21T00:24:07.639Z,15.35
2017-12-21T00:26:34.856Z,15.02
2017-12-21T00:29:01.360Z,16.23
2017-12-21T00:31:27.833Z,14.60
2017-12-21T00:33:54.317Z,15.88
2017-12-21T00:36:20.745Z,14.90
2017-12-21T00:38:47.165Z,16.25
2017-12-21T00:41:14.624Z,16.37
2017-12-21T00:43:41.030Z,17.12
2017-12-21T00:46:11.373Z,16.62
2017-12-21T00:48:37.827Z,17.50
2017-12-21T00:51:05.041Z,15.50
2017-12-21T00:53:32.396Z,14.18
2017-12-21T00:55:58.800Z,13.90
2017-12-21T00:58:25.404Z,13.20
2017-12-21T01:00:51.864Z,16.08
2017-12-21T01:03:18.269Z,15.00
2017-12-21T01:05:45.051Z,14.87
2017-12-21T01:08:11.489Z,14.35
2017-12-21T01:10:37.966Z,15.20
2017-12-21T01:13:04.433Z,15.25
2017-12-21T01:15:31.597Z,14.05
2017-12-21T01:17:58.049Z,16.75
2017-12-21T01:20:24.460Z,14.00
2017-12-21T01:22:50.924Z,14.57
2017-12-21T01:25:17.405Z,16.20
2017-12-21T01:27:44.624Z,14.68
2017-12-21T01:30:11.045Z,14.90
2017-12-21T01:32:37.502Z,13.48
2017-12-21T01:35:03.901Z,16.00
2017-12-21T01:37:30.340Z,14.52
2017-12-21T01:39:56.801Z,15.05
2017-12-21T01:42:23.366Z,14.90
2017-12-21T01:44:49.906Z,14.20
2017-12-21T01:47:16.435Z,13.90
2017-12-21T01:49:43.685Z,13.88
2017-12-21T01:52:10.222Z,14.27
2017-12-21T01:54:36.840Z,12.65
2017-12-21T01:57:03.296Z,15.57
2017-12-21T01:59:29.770Z,13.38
2017-12-21T02:01:56.265Z,13.48
2017-12-21T02:04:22.738Z,14.95
2017-12-21T02:06:49.248Z,15.82
2017-12-21T02:09:15.710Z,15.10
2017-12-21T02:11:42.188Z,15.15
2017-12-21T02:14:08.622Z,13.73
2017-12-21T02:16:35.081Z,14.10
2017-12-21T02:19:01.504Z,16.00
2017-12-21T02:21:27.973Z,14.30
2017-12-21T02:23:55.215Z,15.07
2017-12-21T02:26:21.689Z,14.18
2017-12-21T02:28:48.269Z,13.70
2017-12-21T02:31:14.745Z,14.45
2017-12-21T02:33:41.241Z,14.40
2017-12-21T02:36:07.730Z,14.68
2017-12-21T02:38:34.965Z,14.63
2017-12-21T02:41:02.180Z,15.48
2017-12-21T02:43:28.674Z,14.57
2017-12-21T02:45:55.185Z,13.82
2017-12-21T02:48:21.689Z,15.02
2017-12-21T02:50:48.246Z,14.48
2017-12-21T02:53:15.523Z,13.68
2017-12-21T02:55:42.022Z,13.77
2017-12-21T02:58:08.528Z,14.60
2017-12-21T03:00:35.101Z,13.50
2017-12-21T03:03:01.581Z,13.57
2017-12-21T03:05:28.125Z,15.15
2017-12-21T03:07:54.628Z,17.12
2017-12-21T03:10:21.134Z,17.55
2017-12-21T03:12:47.770Z,18.87
2017-12-21T03:15:14.319Z,16.62
2017-12-21T03:17:41.515Z,15.63
2017-12-21T03:20:07.981Z,14.52
2017-12-21T03:22:34.442Z,16.17
2017-12-21T03:25:00.941Z,15.68
2017-12-21T03:27:27.414Z,16.30
2017-12-21T03:42:48.273Z,17.17
2017-12-21T03:45:14.758Z,15.35
2017-12-21T03:47:41.182Z,15.00
2017-12-21T03:50:08.357Z,13.40
2017-12-21T03:52:34.822Z,15.60
2017-12-21T03:55:01.278Z,14.55
2017-12-21T03:57:27.751Z,14.50
2017-12-21T03:59:54.194Z,14.35
2017-12-21T04:02:20.673Z,13.20
2017-12-21T04:04:47.482Z,13.75
2017-12-21T04:07:13.910Z,13.18
2017-12-21T04:09:41.089Z,14.95
2017-12-21T04:12:07.546Z,13.25
2017-12-21T04:14:34.817Z,15.30
2017-12-21T04:17:01.284Z,13.13
2017-12-21T04:19:27.873Z,13.88
2017-12-21T04:21:54.337Z,15.70
2017-12-21T04:24:20.769Z,14.05
2017-12-21T04:26:47.218Z,15.18
2017-12-21T04:29:13.696Z,16.20
2017-12-21T04:31:40.174Z,15.70
2017-12-21T04:34:06.593Z,14.20
2017-12-21T04:36:33.047Z,14.93
2017-12-21T04:38:59.478Z,13.98
2017-12-21T04:41:25.930Z,15.02
2017-12-21T04:43:52.406Z,15.30
2017-12-21T04:46:19.617Z,14.25
2017-12-21T04:48:46.045Z,13.15
2017-12-21T04:51:12.514Z,13.35
2017-12-21T04:53:38.976Z,14.10
2017-12-21T04:56:05.429Z,14.80
2017-12-21T04:58:31.943Z,15.55
2017-12-21T05:00:58.385Z,14.50
2017-12-21T05:03:24.834Z,13.98
2017-12-21T05:05:51.294Z,13.85
2017-12-21T05:08:17.733Z,13.23
2017-12-21T05:10:44.218Z,15.20
2017-12-21T05:13:10.662Z,13.50
2017-12-21T05:15:37.150Z,13.62
2017-12-21T05:18:04.383Z,16.50
2017-12-21T05:20:30.800Z,13.07
2017-12-21T05:22:57.273Z,14.30
2017-12-21T05:25:23.731Z,14.75
2017-12-21T05:27:50.156Z,17.08
2017-12-21T05:30:17.340Z,16.23
2017-12-21T05:32:43.822Z,16.70
2017-12-21T05:35:10.345Z,17.87
2017-12-21T05:37:36.942Z,15.10
2017-12-21T05:40:03.403Z,14.45
2017-12-21T05:42:29.826Z,15.07
2017-12-21T05:44:56.257Z,14.25
2017-12-21T05:47:22.689Z,16.60
2017-12-21T05:49:49.118Z,14.98
2017-12-21T05:52:15.585Z,16.02
2017-12-21T05:54:42.028Z,16.80
2017-12-21T05:57:08.495Z,17.20
2017-12-21T05:59:34.946Z,14.80
2017-12-21T06:02:01.525Z,17.00
2017-12-21T06:04:28.007Z,15.95
2017-12-21T06:06:54.565Z,18.48
2017-12-21T06:09:21.013Z,16.70
2017-12-21T06:11:47.442Z,17.25
2017-12-21T06:14:13.869Z,17.48
2017-12-21T06:16:40.281Z,16.45
2017-12-21T06:19:06.769Z,20.83
2017-12-21T06:21:33.172Z,18.50
2017-12-21T06:23:59.573Z,17.20
2017-12-21T06:26:26.162Z,21.70
2017-12-21T06:28:52.565Z,17.23
2017-12-21T06:31:19.001Z,18.35
2017-12-21T06:33:45.458Z,19.42
2017-12-21T06:36:11.869Z,20.35
2017-12-21T06:38:38.312Z,20.42
2017-12-21T06:41:05.487Z,17.05
2017-12-21T06:43:32.656Z,19.58
2017-12-21T06:45:59.060Z,16.08
2017-12-21T06:48:25.492Z,15.30
2017-12-21T06:50:51.901Z,14.35
2017-12-21T06:53:18.379Z,14.82
2017-12-21T06:55:45.527Z,16.27
2017-12-21T06:58:12.713Z,14.38
2017-12-21T07:00:39.202Z,14.60
2017-12-21T07:03:05.629Z,15.20
2017-12-21T07:05:32.054Z,15.80
2017-12-21T07:07:58.502Z,16.30
2017-12-21T07:10:25.681Z,15.70
2017-12-21T07:12:52.896Z,15.63
2017-12-21T07:15:19.350Z,15.50
2017-12-21T07:17:45.806Z,15.05
2017-12-21T07:20:12.216Z,16.17
2017-12-21T07:22:39.402Z,16.58
2017-12-21T07:25:05.833Z,14.05
2017-12-21T07:27:32.266Z,13.15
2017-12-21T07:29:58.676Z,13.55
2017-12-21T07:32:25.113Z,16.15
2017-12-21T07:34:51.525Z,17.60
2017-12-21T07:37:17.988Z,19.87
2017-12-21T07:39:44.526Z,16.17
2017-12-21T07:42:10.940Z,17.65
2017-12-21T07:44:37.345Z,16.12
2017-12-21T07:47:03.837Z,16.70
2017-12-21T07:49:30.260Z,16.90
2017-12-21T07:51:56.742Z,17.85
2017-12-21T07:54:23.936Z,17.58
2017-12-21T07:56:50.365Z,22.30
2017-12-21T07:59:16.788Z,22.75
2017-12-21T08:01:43.194Z,26.80
2017-12-21T08:04:09.678Z,19.27
2017-12-21T08:06:36.095Z,17.10
2017-12-21T08:09:02.589Z,16.10
2017-12-21T08:11:29.782Z,17.98
2017-12-21T08:13:56.537Z,16.40
2017-12-21T08:16:22.958Z,16.92
2017-12-21T08:18:49.375Z,14.32
2017-12-21T08:21:15.811Z,16.50
2017-12-21T08:23:42.213Z,17.27
2017-12-21T08:26:08.677Z,15.60
2017-12-21T08:28:35.144Z,16.65
2017-12-21T08:31:01.600Z,18.77
2017-12-21T08:33:28.045Z,13.73
2017-12-21T08:35:55.246Z,13.00
2017-12-21T08:38:21.752Z,14.52
2017-12-21T08:40:48.967Z,15.40
2017-12-21T08:43:15.412Z,14.30
2017-12-21T08:45:41.846Z,17.20
2017-12-21T08:48:08.300Z,13.95
2017-12-21T08:50:35.451Z,13.95
2017-12-21T08:53:01.857Z,18.23
2017-12-21T08:55:28.280Z,13.15
2017-12-21T08:57:54.706Z,13.52
2017-12-21T09:00:21.139Z,15.05
2017-12-21T09:02:47.697Z,13.90
2017-12-21T09:05:14.936Z,11.27
2017-12-21T09:07:41.345Z,12.25
2017-12-21T09:10:07.799Z,12.55
2017-12-21T09:12:34.216Z,12.27
2017-12-21T09:15:00.656Z,16.48
2017-12-21T09:17:27.116Z,19.25
2017-12-21T09:19:53.556Z,15.35
2017-12-21T09:22:20.877Z,16.55
2017-12-21T09:24:47.385Z,13.75
2017-12-21T09:27:13.858Z,10.63
2017-12-21T09:29:40.309Z,11.60
2017-12-21T09:32:06.774Z,11.50
2017-12-21T09:34:33.206Z,12.65
2017-12-21T09:36:59.659Z,9.02
2017-12-21T09:39:26.129Z,11.07
2017-12-21T09:41:52.545Z,10.02
2017-12-21T09:44:18.985Z,13.00
2017-12-21T09:46:47.226Z,11.55
2017-12-21T09:49:13.667Z,11.30
2017-12-21T09:51:40.186Z,12.05
2017-12-21T09:54:06.686Z,13.15
2017-12-21T09:56:33.857Z,12.90
2017-12-21T09:59:00.309Z,13.55
2017-12-21T10:01:26.712Z,15.73
2017-12-21T10:03:53.584Z,15.80
2017-12-21T10:06:20.010Z,14.90
2017-12-21T10:08:46.416Z,20.17
2017-12-21T10:11:13.640Z,20.65
2017-12-21T10:13:40.053Z,17.30
2017-12-21T10:16:06.597Z,16.25
2017-12-21T10:18:32.997Z,16.73
2017-12-21T10:20:59.386Z,17.45
2017-12-21T10:23:26.597Z,14.32
2017-12-21T10:25:53.038Z,24.15
2017-12-21T10:28:19.423Z,21.20
2017-12-21T10:30:45.869Z,15.60
2017-12-21T10:33:12.613Z,16.25
2017-12-21T10:35:39.060Z,16.08
2017-12-21T10:38:05.488Z,13.77
2017-12-21T10:40:31.987Z,15.02
2017-12-21T10:42:58.430Z,13.77
2017-12-21T10:45:24.965Z,14.52
2017-12-21T10:47:51.454Z,12.55
2017-12-21T10:50:17.850Z,11.55
2017-12-21T10:52:44.480Z,10.30
2017-12-21T10:55:11.350Z,11.18
2017-12-21T10:57:38.598Z,10.20
2017-12-21T11:00:05.030Z,9.55
2017-12-21T11:02:31.528Z,9.43
2017-12-21T11:04:58.037Z,9.07
2017-12-21T11:07:24.519Z,8.30
2017-12-21T11:09:50.982Z,8.00
2017-12-21T11:12:17.470Z,8.73
2017-12-21T11:14:43.919Z,9.20
2017-12-21T11:17:10.370Z,8.73
2017-12-21T11:19:36.813Z,8.27
2017-12-21T11:22:03.307Z,8.98
2017-12-21T11:24:29.778Z,9.00
2017-12-21T11:26:57.034Z,9.40
2017-12-21T11:29:24.284Z,8.30
2017-12-21T11:31:51.811Z,8.52
2017-12-21T11:34:18.257Z,7.70
2017-12-21T11:36:44.781Z,8.38
2017-12-21T11:39:11.290Z,8.70
2017-12-21T11:41:37.742Z,8.00
2017-12-21T11:44:04.243Z,8.00
2017-12-21T11:46:31.424Z,7.45
2017-12-21T11:48:57.880Z,7.32
2017-12-21T11:51:24.329Z,7.95
2017-12-21T11:53:50.796Z,7.20
2017-12-21T11:56:17.969Z,7.47
2017-12-21T11:58:44.474Z,6.35
2017-12-21T12:01:11.000Z,6.37
2017-12-21T12:03:37.427Z,7.80
2017-12-21T12:06:03.993Z,6.78
2017-12-21T12:08:30.458Z,6.82
2017-12-21T12:10:56.914Z,6.22
2017-12-21T12:13:23.387Z,6.07
2017-12-21T12:15:49.806Z,7.72
2017-12-21T12:18:16.262Z,6.80
2017-12-21T12:20:42.749Z,7.78
2017-12-21T12:23:09.203Z,7.00
2017-12-21T12:25:35.646Z,5.40
2017-12-21T12:28:02.833Z,6.53
2017-12-21T12:30:30.014Z,7.75
2017-12-21T12:32:56.421Z,7.15
2017-12-21T12:35:22.872Z,6.15
2017-12-21T12:37:49.314Z,7.35
2017-12-21T12:40:15.771Z,7.07
2017-12-21T12:42:42.206Z,6.40
2017-12-21T12:45:09.423Z,6.50
2017-12-21T12:47:35.849Z,6.28
2017-12-21T12:50:03.030Z,5.65
2017-12-21T12:52:29.481Z,5.80
2017-12-21T12:54:56.642Z,6.00
2017-12-21T12:57:23.881Z,7.10
2017-12-21T12:59:51.077Z,6.28
2017-12-21T13:02:17.554Z,8.65
2017-12-21T13:04:44.018Z,8.30
2017-12-21T13:07:10.466Z,8.68
2017-12-21T13:09:36.889Z,8.52
2017-12-21T13:12:03.325Z,9.18
2017-12-21T13:14:29.796Z,8.25
2017-12-21T13:16:56.329Z,7.93
2017-12-21T13:19:23.577Z,8.35
2017-12-21T13:21:50.018Z,8.32
2017-12-21T13:24:16.434Z,8.48
2017-12-21T13:26:42.909Z,8.05
2017-12-21T13:29:09.342Z,8.40
2017-12-21T13:31:35.801Z,10.38
2017-12-21T13:34:02.941Z,11.88
2017-12-21T13:36:29.356Z,13.20
2017-12-21T13:38:55.944Z,15.48
2017-12-21T13:41:22.401Z,17.48
2017-12-21T13:43:48.817Z,11.40
2017-12-21T13:46:15.245Z,10.32
2017-12-21T13:48:41.729Z,9.45
2017-12-21T13:51:09.017Z,10.00
2017-12-21T13:53:35.476Z,9.15
2017-12-21T13:56:01.924Z,9.10
2017-12-21T13:58:28.382Z,9.70
2017-12-21T14:00:55.666Z,8.60
2017-12-21T14:03:22.158Z,12.45
2017-12-21T14:05:49.367Z,11.30
2017-12-21T14:08:15.841Z,9.20
2017-12-21T14:10:42.325Z,8.70
2017-12-21T14:13:08.765Z,7.53
2017-12-21T14:15:35.212Z,7.40
2017-12-21T14:18:01.642Z,8.10
2017-12-21T14:20:28.179Z,11.48
2017-12-21T14:22:54.595Z,12.82
2017-12-21T14:25:21.054Z,9.98
2017-12-21T14:27:47.505Z,8.05
2017-12-21T14:30:13.961Z,9.40
2017-12-21T14:32:48.404Z,10.05
2017-12-21T14:35:25.969Z,9.30
2017-12-21T14:38:01.798Z,8.40
2017-12-21T14:40:39.141Z,9.18
2017-12-21T14:43:08.439Z,9.25
2017-12-21T14:45:34.938Z,8.73
2017-12-21T14:48:01.405Z,8.40
2017-12-21T14:50:28.072Z,8.85
2017-12-21T14:52:54.489Z,10.45
2017-12-21T14:55:20.974Z,10.23
2017-12-21T14:57:47.607Z,12.00
2017-12-21T15:00:14.038Z,13.57
2017-12-21T15:02:41.230Z,13.73
2017-12-21T15:05:07.662Z,19.52
2017-12-21T15:07:34.112Z,13.50
2017-12-21T15:10:00.543Z,10.13
2017-12-21T15:12:26.966Z,11.15
2017-12-21T15:14:53.488Z,7.25
2017-12-21T15:17:19.935Z,7.32
2017-12-21T15:19:46.378Z,7.78
2017-12-21T15:22:12.818Z,9.65
2017-12-21T15:24:39.238Z,10.13
2017-12-21T15:27:05.709Z,9.57
2017-12-21T15:29:32.122Z,12.00
2017-12-21T15:31:58.589Z,13.00
2017-12-21T15:34:25.044Z,13.43
2017-12-21T15:36:52.225Z,11.30
2017-12-21T15:39:18.680Z,12.30
2017-12-21T15:41:45.105Z,10.48
2017-12-21T15:44:11.522Z,11.20
2017-12-21T15:46:37.980Z,10.98
2017-12-21T15:49:04.401Z,11.45
2017-12-21T15:51:30.881Z,10.10
2017-12-21T15:53:57.327Z,12.57
2017-12-21T15:56:24.532Z,12.65
2017-12-21T15:58:50.981Z,11.85
2017-12-21T16:01:17.397Z,12.45
2017-12-21T16:03:43.890Z,11.52
2017-12-21T16:06:10.397Z,10.25
2017-12-21T16:08:36.849Z,10.68
2017-12-21T16:11:03.345Z,11.48
2017-12-21T16:13:30.610Z,9.95
2017-12-21T16:15:57.083Z,11.70
2017-12-21T16:18:23.554Z,11.30
2017-12-21T16:20:50.102Z,21.98
2017-12-21T16:23:16.607Z,10.93
2017-12-21T16:25:43.033Z,11.10
2017-12-21T16:28:09.561Z,10.55
2017-12-21T16:30:36.713Z,9.57
2017-12-21T16:33:03.195Z,10.63
2017-12-21T16:35:29.921Z,18.10
2017-12-21T16:37:56.391Z,19.70
2017-12-21T16:40:22.897Z,21.10
2017-12-21T16:42:49.450Z,15.90
2017-12-21T16:45:16.619Z,12.43
2017-12-21T16:47:43.121Z,11.90
2017-12-21T16:50:10.404Z,12.85
2017-12-21T16:52:36.939Z,17.55
2017-12-21T16:55:03.471Z,14.63
2017-12-21T16:57:30.646Z,13.02
2017-12-21T16:59:57.174Z,11.30
2017-12-21T17:02:23.606Z,10.82
2017-12-21T17:04:50.041Z,10.55
2017-12-21T17:07:16.533Z,12.15
2017-12-21T17:09:43.765Z,12.15
2017-12-21T17:12:10.207Z,12.45
2017-12-21T17:14:36.733Z,13.55
2017-12-21T17:17:03.221Z,12.05
2017-12-21T17:19:29.750Z,11.50
2017-12-21T17:21:56.227Z,10.65
2017-12-21T17:24:22.759Z,11.50
2017-12-21T17:26:49.278Z,10.60
2017-12-21T17:29:15.755Z,15.35
2017-12-21T17:31:42.206Z,27.55
2017-12-21T17:34:08.667Z,23.23
2017-12-21T17:36:35.141Z,24.40
2017-12-21T17:39:01.630Z,19.00
2017-12-21T17:41:28.143Z,16.87
2017-12-21T17:43:54.684Z,18.17
2017-12-21T17:46:21.926Z,15.20
2017-12-21T17:48:48.510Z,15.15
2017-12-21T17:51:15.040Z,13.93
2017-12-21T17:53:41.493Z,12.95
2017-12-21T17:56:08.097Z,8.15
2017-12-21T17:58:34.564Z,10.45
2017-12-21T18:01:01.141Z,12.80
2017-12-21T18:03:28.450Z,13.73
2017-12-21T18:05:54.988Z,14.57
2017-12-21T18:08:21.449Z,15.65
2017-12-21T18:10:48.705Z,13.73
2017-12-21T18:13:15.170Z,19.37
2017-12-21T18:15:41.656Z,12.05
2017-12-21T18:18:08.147Z,10.23
2017-12-21T18:20:34.654Z,10.60
2017-12-21T18:23:01.907Z,9.23
2017-12-21T18:25:29.406Z,13.55
2017-12-21T18:27:55.889Z,11.12
2017-12-21T18:30:23.187Z,10.20
2017-12-21T18:32:50.541Z,10.15
2017-12-21T18:35:17.022Z,11.50
2017-12-21T18:37:43.551Z,8.82
2017-12-21T18:40:10.802Z,13.13
2017-12-21T18:42:37.437Z,13.15
2017-12-21T18:45:03.984Z,11.95
2017-12-21T18:47:31.231Z,12.43
2017-12-21T18:49:57.805Z,14.35
2017-12-21T18:52:24.310Z,13.05
2017-12-21T18:54:51.525Z,14.48
2017-12-21T18:57:18.030Z,12.73
2017-12-21T18:59:44.688Z,15.50
2017-12-21T19:02:11.199Z,15.48
2017-12-21T19:04:37.704Z,14.10
2017-12-21T19:07:04.918Z,14.27
2017-12-21T19:09:31.456Z,13.60
2017-12-21T19:11:57.926Z,12.90
2017-12-21T19:14:25.174Z,13.50
2017-12-21T19:16:52.401Z,14.20
2017-12-21T19:19:18.933Z,15.90
2017-12-21T19:21:45.685Z,13.18
2017-12-21T19:24:12.162Z,14.02
2017-12-21T19:26:38.635Z,16.35
2017-12-21T19:29:05.121Z,13.68
2017-12-21T19:31:32.341Z,15.15
2017-12-21T19:33:58.828Z,14.55
2017-12-21T19:36:25.311Z,12.80
2017-12-21T19:38:51.813Z,11.57
2017-12-21T19:41:18.331Z,12.98
2017-12-21T19:43:44.779Z,12.37
2017-12-21T19:46:11.267Z,11.63
2017-12-21T19:48:37.718Z,11.70
2017-12-21T19:51:04.159Z,15.65
2017-12-21T19:53:30.647Z,11.57
2017-12-21T19:55:57.143Z,12.00
2017-12-21T19:58:23.659Z,10.20
2017-12-21T20:00:50.154Z,9.57
2017-12-21T20:03:17.412Z,11.27
2017-12-21T20:05:43.879Z,11.20
2017-12-21T20:08:10.386Z,11.20
2017-12-21T20:10:37.593Z,10.80
2017-12-21T20:13:04.012Z,10.90
2017-12-21T20:15:30.475Z,11.45
2017-12-21T20:17:56.947Z,11.35
2017-12-21T20:20:24.163Z,10.85
2017-12-21T20:22:50.634Z,16.58
2017-12-21T20:25:17.874Z,13.20
2017-12-21T20:27:44.380Z,11.85
2017-12-21T20:30:10.878Z,9.57
2017-12-21T20:32:37.424Z,10.13
2017-12-21T20:35:03.973Z,10.30
2017-12-21T20:37:30.475Z,10.68
2017-12-21T20:39:56.939Z,11.23
2017-12-21T20:42:23.435Z,12.95
2017-12-21T20:44:49.935Z,14.00
2017-12-21T20:47:16.418Z,15.70
2017-12-21T20:49:42.911Z,10.80
2017-12-21T20:52:09.381Z,12.07
2017-12-21T20:54:35.885Z,13.75
2017-12-21T20:57:03.115Z,13.02
2017-12-21T20:59:29.598Z,13.10
2017-12-21T21:01:56.130Z,13.48
2017-12-21T21:04:22.651Z,12.65
2017-12-21T21:06:49.943Z,11.18
2017-12-21T21:09:16.488Z,12.32
2017-12-21T21:11:42.962Z,12.73
2017-12-21T21:14:09.448Z,11.05
2017-12-21T21:16:35.994Z,12.05
2017-12-21T21:19:02.768Z,12.02
2017-12-21T21:21:29.502Z,10.48
2017-12-21T21:23:56.795Z,10.65
2017-12-21T21:26:23.236Z,8.50
2017-12-21T21:28:49.812Z,8.93
2017-12-21T21:31:16.315Z,7.80
2017-12-21T21:33:42.782Z,7.20
2017-12-21T21:36:09.319Z,7.75
2017-12-21T21:38:35.752Z,7.93
2017-12-21T21:41:02.222Z,8.85
2017-12-21T21:43:28.759Z,9.57
2017-12-21T21:45:56.036Z,10.70
2017-12-21T21:48:22.515Z,8.45
2017-12-21T21:50:49.076Z,8.52
2017-12-21T21:53:15.625Z,9.02
2017-12-21T21:55:42.107Z,7.95
2017-12-21T21:58:09.317Z,9.48
2017-12-21T22:00:35.849Z,8.65
2017-12-21T22:03:02.331Z,10.85
2017-12-21T22:05:29.557Z,11.70
2017-12-21T22:07:56.039Z,9.00
2017-12-21T22:10:23.255Z,10.43
2017-12-21T22:12:51.259Z,10.50
2017-12-21T22:15:18.476Z,9.85
2017-12-21T22:17:44.932Z,10.20
2017-12-21T22:20:11.429Z,9.43
2017-12-21T22:22:38.110Z,10.20
2017-12-21T22:25:04.777Z,10.63
2017-12-21T22:27:31.382Z,10.32
2017-12-21T22:29:57.912Z,9.00
2017-12-21T22:32:24.389Z,10.82
2017-12-21T22:34:50.871Z,8.48
2017-12-21T22:37:17.378Z,9.60
2017-12-21T22:39:43.834Z,9.15
2017-12-21T22:42:10.367Z,9.15
2017-12-21T22:44:36.852Z,10.77
2017-12-21T22:47:03.339Z,10.68
2017-12-21T22:49:30.619Z,11.30
2017-12-21T22:51:57.255Z,10.07
2017-12-21T22:54:24.450Z,10.13
2017-12-21T22:56:50.913Z,10.95
2017-12-21T22:59:17.376Z,11.10
2017-12-21T23:01:43.845Z,13.27
2017-12-21T23:04:10.309Z,11.20
2017-12-21T23:06:36.768Z,12.95
2017-12-21T23:09:04.002Z,11.15
2017-12-21T23:11:30.456Z,12.65
2017-12-21T23:13:57.701Z,12.40
2017-12-21T23:16:24.145Z,13.43
2017-12-21T23:18:50.614Z,10.77
2017-12-21T23:21:17.187Z,12.65
2017-12-21T23:23:43.653Z,10.23
2017-12-21T23:26:10.841Z,9.85
2017-12-21T23:28:37.317Z,12.30
2017-12-21T23:31:03.809Z,11.85
2017-12-21T23:33:30.253Z,12.15
2017-12-21T23:35:56.725Z,11.82
2017-12-21T23:38:23.237Z,12.68
2017-12-21T23:40:49.718Z,13.50
2017-12-21T23:43:17.004Z,12.50
2017-12-21T23:45:43.529Z,12.75
2017-12-21T23:48:09.990Z,11.27
2017-12-21T23:50:36.490Z,11.57
2017-12-21T23:53:02.976Z,13.02
2017-12-21T23:55:29.489Z,10.45
2017-12-21T23:57:56.009Z,11.27
